createdAt,value
2023-01-12T00:00:21.389Z,1001.53
2023-01-12T00:01:21.324Z,1001.41
2023-01-12T00:02:22.381Z,1001.41
2023-01-12T00:03:22.307Z,1001.40
2023-01-12T00:04:22.361Z,1001.40
2023-01-12T00:05:22.290Z,1001.43
2023-01-12T00:06:21.275Z,1001.43
2023-01-12T00:07:21.260Z,1001.38
2023-01-12T00:08:21.237Z,1001.42
2023-01-12T00:09:22.229Z,1001.38
2023-01-12T00:10:22.244Z,1001.36
2023-01-12T00:11:21.228Z,1001.43
2023-01-12T00:12:21.225Z,1001.45
2023-01-12T00:13:21.174Z,1001.51
2023-01-12T00:14:21.173Z,1001.49
2023-01-12T00:15:22.186Z,1001.51
2023-01-12T00:16:21.183Z,1001.54
2023-01-12T00:17:21.149Z,1001.64
2023-01-12T00:18:22.305Z,1001.54
2023-01-12T00:19:21.112Z,1001.69
2023-01-12T00:20:21.126Z,1001.69
2023-01-12T00:21:21.111Z,1001.63
2023-01-12T00:22:21.105Z,1001.74
2023-01-12T00:23:21.075Z,1001.70
2023-01-12T00:24:22.059Z,1001.70
2023-01-12T00:25:21.068Z,1001.72
2023-01-12T00:26:22.099Z,1001.72
2023-01-12T00:27:21.042Z,1001.72
2023-01-12T00:28:21.069Z,1001.73
2023-01-12T00:29:22.089Z,1001.66
2023-01-12T00:30:21.047Z,1001.72
2023-01-12T00:31:21.174Z,1001.72
2023-01-12T00:32:21.039Z,1001.65
2023-01-12T00:33:21.961Z,1001.63
2023-01-12T00:34:20.981Z,1001.66
2023-01-12T00:35:20.969Z,1001.62
2023-01-12T00:36:20.939Z,1001.59
2023-01-12T00:37:20.987Z,1001.57
2023-01-12T00:38:20.912Z,1001.64
2023-01-12T00:39:21.912Z,1001.56
2023-01-12T00:40:20.926Z,1001.54
2023-01-12T00:41:21.889Z,1001.56
2023-01-12T00:42:20.882Z,1001.58
2023-01-12T00:43:20.898Z,1001.57
2023-01-12T00:44:20.875Z,1001.59
2023-01-12T00:45:20.819Z,1001.57
2023-01-12T00:46:21.051Z,1001.60
2023-01-12T00:47:21.817Z,1001.55
2023-01-12T00:48:20.806Z,1001.61
2023-01-12T00:49:20.795Z,1001.60
2023-01-12T00:50:20.787Z,1001.67
2023-01-12T00:51:20.860Z,1001.66
2023-01-12T00:52:30.469Z,1001.68
2023-01-12T00:53:21.764Z,1001.58
2023-01-12T00:54:20.740Z,1001.63
2023-01-12T00:55:20.798Z,1001.62
2023-01-12T00:56:20.750Z,1001.62
2023-01-12T00:57:21.714Z,1001.67
2023-01-12T00:58:21.684Z,1001.64
2023-01-12T00:59:20.679Z,1001.71
2023-01-12T01:00:20.686Z,1001.71
2023-01-12T01:01:20.736Z,1001.71
2023-01-12T01:02:20.787Z,1001.74
2023-01-12T01:03:20.630Z,1001.76
2023-01-12T01:04:20.679Z,1001.81
2023-01-12T01:05:20.683Z,1001.79
2023-01-12T01:06:20.607Z,1001.70
2023-01-12T01:07:20.627Z,1001.74
2023-01-12T01:08:20.577Z,1001.70
2023-01-12T01:09:21.615Z,1001.74
2023-01-12T01:10:20.593Z,1001.71
2023-01-12T01:11:20.562Z,1001.71
2023-01-12T01:12:20.533Z,1001.69
2023-01-12T01:13:20.533Z,1001.68
2023-01-12T01:14:21.534Z,1001.59
2023-01-12T01:15:20.522Z,1001.51
2023-01-12T01:16:20.589Z,1001.52
2023-01-12T01:17:20.540Z,1001.52
2023-01-12T01:18:20.536Z,1001.43
2023-01-12T01:19:20.981Z,1001.40
2023-01-12T01:20:21.474Z,1001.41
2023-01-12T01:21:21.477Z,1001.38
2023-01-12T01:22:20.521Z,1001.34
2023-01-12T01:23:20.612Z,1001.33
2023-01-12T01:24:20.438Z,1001.26
2023-01-12T01:25:20.419Z,1001.28
2023-01-12T01:26:20.384Z,1001.23
2023-01-12T01:27:20.401Z,1001.20
2023-01-12T01:28:20.391Z,1001.23
2023-01-12T01:29:20.418Z,1001.29
2023-01-12T01:30:21.048Z,1001.29
2023-01-12T01:31:20.511Z,1001.32
2023-01-12T01:32:20.344Z,1001.21
2023-01-12T01:33:20.322Z,1001.20
2023-01-12T01:34:20.339Z,1001.14
2023-01-12T01:35:20.298Z,1001.16
2023-01-12T01:36:20.302Z,1001.12
2023-01-12T01:37:20.317Z,1001.06
2023-01-12T01:38:20.323Z,1001.08
2023-01-12T01:39:20.281Z,1001.06
2023-01-12T01:40:20.216Z,1001.10
2023-01-12T01:41:20.264Z,1001.04
2023-01-12T01:42:20.224Z,1001.00
2023-01-12T01:43:20.229Z,1000.99
2023-01-12T01:44:20.241Z,1000.94
2023-01-12T01:45:20.204Z,1000.95
2023-01-12T01:46:20.233Z,1000.98
2023-01-12T01:47:20.318Z,1000.99
2023-01-12T01:48:20.173Z,1000.99
2023-01-12T01:49:21.150Z,1001.00
2023-01-12T01:50:20.121Z,1000.94
2023-01-12T01:51:20.206Z,1001.01
2023-01-12T01:52:20.113Z,1000.98
2023-01-12T01:53:20.174Z,1000.99
2023-01-12T01:54:20.113Z,1001.09
2023-01-12T01:55:20.088Z,1000.97
2023-01-12T01:56:20.100Z,1000.97
2023-01-12T01:57:20.072Z,1000.98
2023-01-12T01:58:20.053Z,1000.95
2023-01-12T01:59:21.067Z,1000.99
2023-01-12T02:00:20.128Z,1001.02
2023-01-12T02:01:20.118Z,1000.98
2023-01-12T02:02:20.146Z,1000.99
2023-01-12T02:03:19.982Z,1000.89
2023-01-12T02:04:20.024Z,1000.87
2023-01-12T02:05:20.024Z,1000.80
2023-01-12T02:06:20.980Z,1000.80
2023-01-12T02:07:19.966Z,1000.87
2023-01-12T02:08:19.965Z,1000.75
2023-01-12T02:09:19.957Z,1000.78
2023-01-12T02:10:20.045Z,1000.71
2023-01-12T02:11:19.878Z,1000.67
2023-01-12T02:12:19.863Z,1000.64
2023-01-12T02:13:19.907Z,1000.65
2023-01-12T02:14:19.871Z,1000.58
2023-01-12T02:15:19.910Z,1000.52
2023-01-12T02:16:19.982Z,1000.45
2023-01-12T02:17:20.846Z,1000.50
2023-01-12T02:18:19.812Z,1000.44
2023-01-12T02:19:19.817Z,1000.39
2023-01-12T02:20:19.822Z,1000.45
2023-01-12T02:21:19.772Z,1000.42
2023-01-12T02:22:19.855Z,1000.41
2023-01-12T02:23:19.839Z,1000.44
2023-01-12T02:24:19.741Z,1000.32
2023-01-12T02:25:19.800Z,1000.29
2023-01-12T02:26:19.787Z,1000.27
2023-01-12T02:27:19.786Z,1000.19
2023-01-12T02:28:19.700Z,1000.25
2023-01-12T02:29:20.690Z,1000.19
2023-01-12T02:30:19.686Z,1000.22
2023-01-12T02:31:20.787Z,1000.27
2023-01-12T02:32:19.685Z,1000.21
2023-01-12T02:33:19.707Z,1000.31
2023-01-12T02:34:19.722Z,1000.27
2023-01-12T02:35:19.766Z,1000.25
2023-01-12T02:36:19.628Z,1000.16
2023-01-12T02:37:19.620Z,1000.13
2023-01-12T02:38:19.611Z,1000.15
2023-01-12T02:39:20.575Z,1000.12
2023-01-12T02:40:19.561Z,1000.07
2023-01-12T02:41:19.569Z,1000.05
2023-01-12T02:42:19.550Z,1000.04
2023-01-12T02:43:19.667Z,1000.04
2023-01-12T02:44:19.570Z,1000.05
2023-01-12T02:45:20.522Z,999.94
2023-01-12T02:46:20.553Z,999.98
2023-01-12T02:47:19.488Z,1000.02
2023-01-12T02:48:19.548Z,999.97
2023-01-12T02:49:19.544Z,999.98
2023-01-12T02:50:20.459Z,999.90
2023-01-12T02:51:19.438Z,999.94
2023-01-12T02:52:20.499Z,999.95
2023-01-12T02:53:19.460Z,999.93
2023-01-12T02:54:19.528Z,999.88
2023-01-12T02:55:19.500Z,999.89
2023-01-12T02:56:19.385Z,999.93
2023-01-12T02:57:19.371Z,1000.00
2023-01-12T02:58:20.388Z,999.95
2023-01-12T02:59:20.391Z,999.99
2023-01-12T03:00:19.389Z,999.90
2023-01-12T03:01:19.581Z,999.96
2023-01-12T03:02:19.342Z,999.86
2023-01-12T03:03:19.381Z,999.89
2023-01-12T03:04:19.380Z,999.91
2023-01-12T03:05:19.604Z,999.92
2023-01-12T03:06:19.307Z,999.90
2023-01-12T03:07:19.303Z,999.78
2023-01-12T03:08:19.388Z,999.83
2023-01-12T03:09:19.274Z,999.76
2023-01-12T03:10:19.272Z,999.85
2023-01-12T03:11:19.234Z,999.73
2023-01-12T03:12:19.335Z,999.82
2023-01-12T03:13:19.240Z,999.81
2023-01-12T03:14:19.254Z,999.78
2023-01-12T03:15:19.252Z,999.83
2023-01-12T03:16:19.405Z,999.83
2023-01-12T03:17:19.263Z,999.93
2023-01-12T03:18:20.157Z,999.83
2023-01-12T03:19:19.188Z,999.88
2023-01-12T03:20:19.190Z,999.98
2023-01-12T03:21:19.216Z,999.81
2023-01-12T03:22:20.404Z,999.93
2023-01-12T03:23:19.100Z,999.93
2023-01-12T03:24:20.124Z,999.86
2023-01-12T03:25:19.115Z,999.88
2023-01-12T03:26:19.053Z,999.83
2023-01-12T03:27:19.075Z,999.81
2023-01-12T03:28:19.073Z,999.89
2023-01-12T03:29:19.067Z,999.76
2023-01-12T03:30:19.061Z,999.76
2023-01-12T03:31:19.075Z,999.83
2023-01-12T03:32:20.026Z,999.95
2023-01-12T03:33:19.042Z,999.86
2023-01-12T03:34:19.097Z,999.79
2023-01-12T03:35:18.991Z,999.81
2023-01-12T03:36:18.980Z,999.76
2023-01-12T03:37:19.010Z,999.84
2023-01-12T03:38:18.966Z,999.78
2023-01-12T03:39:19.008Z,999.79
2023-01-12T03:40:19.008Z,999.85
2023-01-12T03:41:18.911Z,999.82
2023-01-12T03:42:18.917Z,999.85
2023-01-12T03:43:18.919Z,999.81
2023-01-12T03:44:18.945Z,999.80
2023-01-12T03:45:18.854Z,999.80
2023-01-12T03:46:18.851Z,999.85
2023-01-12T03:47:18.868Z,999.80
2023-01-12T03:48:18.830Z,999.82
2023-01-12T03:49:18.891Z,999.83
2023-01-12T03:50:18.889Z,999.74
2023-01-12T03:51:18.781Z,999.78
2023-01-12T03:52:19.828Z,999.80
2023-01-12T03:53:18.806Z,999.71
2023-01-12T03:54:18.801Z,999.72
2023-01-12T03:55:18.810Z,999.67
2023-01-12T03:56:18.764Z,999.65
2023-01-12T03:57:18.766Z,999.62
2023-01-12T03:58:18.900Z,999.63
2023-01-12T03:59:18.724Z,999.64
2023-01-12T04:00:18.749Z,999.67
2023-01-12T04:01:18.856Z,999.66
2023-01-12T04:02:18.765Z,999.62
2023-01-12T04:03:19.857Z,999.61
2023-01-12T04:04:18.683Z,999.57
2023-01-12T04:05:18.635Z,999.58
2023-01-12T04:06:18.645Z,999.54
2023-01-12T04:07:18.618Z,999.56
2023-01-12T04:08:18.624Z,999.49
2023-01-12T04:09:18.591Z,999.61
2023-01-12T04:10:18.735Z,999.53
2023-01-12T04:11:18.579Z,999.47
2023-01-12T04:12:18.629Z,999.52
2023-01-12T04:13:18.548Z,999.45
2023-01-12T04:14:18.595Z,999.45
2023-01-12T04:15:18.533Z,999.39
2023-01-12T04:16:18.586Z,999.39
2023-01-12T04:17:18.536Z,999.34
2023-01-12T04:18:18.514Z,999.39
2023-01-12T04:19:18.499Z,999.36
2023-01-12T04:20:18.478Z,999.29
2023-01-12T04:21:18.469Z,999.30
2023-01-12T04:22:18.485Z,999.39
2023-01-12T04:23:18.501Z,999.40
2023-01-12T04:24:18.443Z,999.39
2023-01-12T04:25:18.434Z,999.41
2023-01-12T04:26:18.426Z,999.40
2023-01-12T04:27:18.394Z,999.39
2023-01-12T04:28:19.409Z,999.41
2023-01-12T04:29:18.396Z,999.37
2023-01-12T04:30:18.383Z,999.47
2023-01-12T04:31:18.429Z,999.41
2023-01-12T04:32:18.345Z,999.39
2023-01-12T04:33:18.333Z,999.44
2023-01-12T04:34:18.361Z,999.40
2023-01-12T04:35:18.357Z,999.41
2023-01-12T04:36:18.326Z,999.36
2023-01-12T04:37:18.310Z,999.41
2023-01-12T04:38:18.271Z,999.36
2023-01-12T04:39:25.993Z,999.42
2023-01-12T04:40:18.248Z,999.38
2023-01-12T04:41:19.264Z,999.48
2023-01-12T04:42:19.269Z,999.41
2023-01-12T04:43:19.235Z,999.40
2023-01-12T04:44:18.255Z,999.43
2023-01-12T04:45:18.227Z,999.45
2023-01-12T04:46:18.267Z,999.49
2023-01-12T04:47:18.190Z,999.37
2023-01-12T04:48:18.218Z,999.42
2023-01-12T04:49:18.211Z,999.40
2023-01-12T04:50:19.165Z,999.45
2023-01-12T04:51:18.139Z,999.46
2023-01-12T04:52:18.128Z,999.49
2023-01-12T04:53:18.210Z,999.51
2023-01-12T04:54:18.119Z,999.49
2023-01-12T04:55:19.108Z,999.50
2023-01-12T04:56:18.105Z,999.51
2023-01-12T04:57:18.090Z,999.47
2023-01-12T04:58:18.128Z,999.49
2023-01-12T04:59:18.066Z,999.44
2023-01-12T05:00:19.061Z,999.47
2023-01-12T05:01:18.280Z,999.45
2023-01-12T05:02:18.020Z,999.43
2023-01-12T05:03:18.040Z,999.43
2023-01-12T05:04:18.014Z,999.39
2023-01-12T05:05:17.989Z,999.41
2023-01-12T05:06:17.995Z,999.42
2023-01-12T05:07:17.971Z,999.46
2023-01-12T05:08:17.972Z,999.44
2023-01-12T05:09:19.989Z,999.39
2023-01-12T05:10:17.922Z,999.43
2023-01-12T05:11:17.941Z,999.41
2023-01-12T05:12:17.901Z,999.38
2023-01-12T05:13:17.904Z,999.49
2023-01-12T05:14:17.909Z,999.41
2023-01-12T05:15:17.909Z,999.39
2023-01-12T05:16:17.925Z,999.31
2023-01-12T05:17:17.870Z,999.32
2023-01-12T05:18:17.852Z,999.30
2023-01-12T05:19:18.858Z,999.30
2023-01-12T05:20:18.454Z,999.27
2023-01-12T05:21:17.816Z,999.34
2023-01-12T05:22:17.791Z,999.33
2023-01-12T05:23:17.799Z,999.35
2023-01-12T05:24:18.835Z,999.25
2023-01-12T05:25:17.784Z,999.25
2023-01-12T05:26:17.775Z,999.34
2023-01-12T05:27:17.786Z,999.27
2023-01-12T05:28:18.735Z,999.23
2023-01-12T05:29:17.746Z,999.20
2023-01-12T05:30:17.728Z,999.19
2023-01-12T05:31:17.718Z,999.20
2023-01-12T05:32:17.797Z,999.16
2023-01-12T05:33:17.727Z,999.18
2023-01-12T05:34:17.660Z,999.19
2023-01-12T05:35:18.663Z,999.23
2023-01-12T05:36:17.658Z,999.19
2023-01-12T05:37:18.635Z,999.21
2023-01-12T05:38:17.657Z,999.19
2023-01-12T05:39:17.678Z,999.22
2023-01-12T05:40:17.604Z,999.17
2023-01-12T05:41:17.600Z,999.19
2023-01-12T05:42:17.619Z,999.23
2023-01-12T05:43:17.590Z,999.17
2023-01-12T05:44:17.576Z,999.15
2023-01-12T05:45:17.561Z,999.20
2023-01-12T05:46:17.585Z,999.15
2023-01-12T05:47:17.560Z,999.13
2023-01-12T05:48:17.539Z,999.15
2023-01-12T05:49:17.517Z,999.12
2023-01-12T05:50:18.501Z,999.09
2023-01-12T05:51:17.479Z,999.10
2023-01-12T05:52:17.483Z,999.15
2023-01-12T05:53:17.470Z,999.13
2023-01-12T05:54:17.499Z,999.10
2023-01-12T05:55:17.453Z,999.11
2023-01-12T05:56:17.429Z,999.12
2023-01-12T05:57:17.417Z,998.98
2023-01-12T05:58:17.398Z,999.06
2023-01-12T05:59:18.415Z,999.08
2023-01-12T06:00:17.454Z,999.05
2023-01-12T06:01:17.409Z,999.02
2023-01-12T06:02:17.456Z,998.92
2023-01-12T06:03:17.360Z,998.97
2023-01-12T06:04:18.469Z,998.90
2023-01-12T06:05:17.343Z,998.92
2023-01-12T06:06:17.338Z,999.02
2023-01-12T06:07:17.340Z,998.92
2023-01-12T06:08:17.330Z,998.91
2023-01-12T06:09:17.290Z,998.88
2023-01-12T06:10:17.499Z,998.81
2023-01-12T06:11:17.276Z,998.91
2023-01-12T06:12:17.261Z,999.01
2023-01-12T06:13:17.264Z,999.03
2023-01-12T06:14:18.365Z,998.95
2023-01-12T06:15:17.209Z,999.02
2023-01-12T06:16:18.314Z,999.04
2023-01-12T06:17:18.234Z,998.93
2023-01-12T06:18:17.216Z,998.98
2023-01-12T06:19:17.263Z,999.00
2023-01-12T06:20:17.207Z,999.00
2023-01-12T06:21:17.209Z,998.92
2023-01-12T06:22:17.172Z,998.97
2023-01-12T06:23:18.149Z,998.90
2023-01-12T06:24:17.167Z,998.88
2023-01-12T06:25:17.270Z,998.95
2023-01-12T06:26:17.109Z,998.96
2023-01-12T06:27:17.120Z,998.87
2023-01-12T06:28:17.090Z,998.77
2023-01-12T06:29:17.071Z,998.85
2023-01-12T06:30:17.069Z,998.80
2023-01-12T06:31:17.107Z,998.82
2023-01-12T06:32:17.184Z,998.80
2023-01-12T06:33:17.023Z,998.76
2023-01-12T06:34:17.022Z,998.74
2023-01-12T06:35:19.649Z,998.76
2023-01-12T06:36:18.018Z,998.75
2023-01-12T06:37:16.996Z,998.64
2023-01-12T06:38:18.961Z,998.67
2023-01-12T06:39:16.966Z,998.67
2023-01-12T06:40:16.961Z,998.70
2023-01-12T06:41:16.959Z,998.64
2023-01-12T06:42:16.939Z,998.69
2023-01-12T06:43:16.991Z,998.67
2023-01-12T06:44:16.991Z,998.67
2023-01-12T06:45:18.021Z,998.66
2023-01-12T06:46:17.017Z,998.69
2023-01-12T06:47:16.880Z,998.59
2023-01-12T06:48:17.857Z,998.53
2023-01-12T06:49:16.846Z,998.52
2023-01-12T06:50:16.903Z,998.58
2023-01-12T06:51:17.830Z,998.52
2023-01-12T06:52:17.875Z,998.67
2023-01-12T06:53:16.877Z,998.55
2023-01-12T06:54:18.481Z,998.57
2023-01-12T06:55:16.859Z,998.44
2023-01-12T06:56:17.822Z,998.57
2023-01-12T06:57:16.775Z,998.53
2023-01-12T06:58:17.907Z,998.46
2023-01-12T06:59:16.921Z,998.45
2023-01-12T07:00:16.874Z,998.39
2023-01-12T07:01:17.933Z,998.48
2023-01-12T07:02:16.793Z,998.46
2023-01-12T07:03:16.748Z,998.55
2023-01-12T07:04:16.770Z,998.49
2023-01-12T07:05:16.801Z,998.58
2023-01-12T07:06:16.707Z,998.58
2023-01-12T07:07:16.753Z,998.53
2023-01-12T07:08:16.850Z,998.52
2023-01-12T07:09:16.625Z,998.46
2023-01-12T07:10:17.673Z,998.54
2023-01-12T07:11:16.702Z,998.50
2023-01-12T07:12:17.785Z,998.50
2023-01-12T07:13:16.600Z,998.50
2023-01-12T07:14:16.761Z,998.46
2023-01-12T07:15:17.670Z,998.54
2023-01-12T07:16:16.665Z,998.48
2023-01-12T07:17:16.663Z,998.42
2023-01-12T07:18:16.527Z,998.43
2023-01-12T07:19:16.644Z,998.55
2023-01-12T07:20:16.514Z,998.48
2023-01-12T07:21:16.620Z,998.41
2023-01-12T07:22:17.577Z,998.47
2023-01-12T07:23:16.555Z,998.40
2023-01-12T07:24:16.504Z,998.39
2023-01-12T07:25:16.565Z,998.35
2023-01-12T07:26:16.636Z,998.42
2023-01-12T07:27:16.454Z,998.34
2023-01-12T07:28:16.438Z,998.34
2023-01-12T07:29:16.473Z,998.34
2023-01-12T07:30:16.503Z,998.35
2023-01-12T07:31:16.557Z,998.33
2023-01-12T07:32:17.489Z,998.35
2023-01-12T07:33:18.580Z,998.36
2023-01-12T07:34:16.371Z,998.36
2023-01-12T07:35:16.400Z,998.28
2023-01-12T07:36:16.335Z,998.33
2023-01-12T07:37:16.396Z,998.35
2023-01-12T07:38:16.313Z,998.45
2023-01-12T07:39:16.343Z,998.35
2023-01-12T07:40:16.349Z,998.41
2023-01-12T07:41:16.278Z,998.38
2023-01-12T07:42:16.271Z,998.40
2023-01-12T07:43:16.271Z,998.29
2023-01-12T07:44:16.298Z,998.36
2023-01-12T07:45:16.266Z,998.34
2023-01-12T07:46:16.285Z,998.40
2023-01-12T07:47:16.215Z,998.34
2023-01-12T07:48:16.204Z,998.32
2023-01-12T07:49:16.233Z,998.38
2023-01-12T07:50:16.176Z,998.29
2023-01-12T07:51:16.201Z,998.34
2023-01-12T07:52:16.334Z,998.32
2023-01-12T07:53:17.151Z,998.34
2023-01-12T07:54:16.192Z,998.33
2023-01-12T07:55:16.252Z,998.30
2023-01-12T07:56:16.139Z,998.23
2023-01-12T07:57:16.116Z,998.20
2023-01-12T07:58:16.140Z,998.26
2023-01-12T07:59:17.116Z,998.22
2023-01-12T08:00:16.056Z,998.17
2023-01-12T08:01:17.137Z,998.13
2023-01-12T08:02:16.114Z,998.14
2023-01-12T08:03:16.042Z,998.06
2023-01-12T08:04:16.018Z,998.05
2023-01-12T08:05:16.074Z,998.01
2023-01-12T08:06:16.021Z,998.05
2023-01-12T08:07:17.133Z,998.00
2023-01-12T08:08:16.000Z,998.02
2023-01-12T08:09:17.030Z,998.00
2023-01-12T08:10:15.970Z,998.04
2023-01-12T08:11:15.955Z,997.96
2023-01-12T08:12:16.034Z,997.99
2023-01-12T08:13:16.049Z,998.01
2023-01-12T08:14:15.915Z,997.92
2023-01-12T08:15:15.928Z,997.93
2023-01-12T08:16:16.927Z,997.91
2023-01-12T08:17:16.918Z,997.89
2023-01-12T08:18:15.892Z,998.00
2023-01-12T08:19:15.911Z,997.97
2023-01-12T08:20:15.862Z,997.89
2023-01-12T08:21:15.858Z,997.87
2023-01-12T08:22:15.865Z,997.95
2023-01-12T08:23:15.840Z,997.94
2023-01-12T08:24:15.824Z,997.90
2023-01-12T08:25:15.829Z,997.86
2023-01-12T08:26:15.830Z,997.91
2023-01-12T08:27:15.792Z,997.91
2023-01-12T08:28:15.839Z,997.84
2023-01-12T08:29:15.740Z,997.92
2023-01-12T08:30:15.749Z,997.99
2023-01-12T08:31:15.773Z,997.89
2023-01-12T08:32:15.721Z,997.94
2023-01-12T08:33:16.722Z,997.83
2023-01-12T08:34:15.694Z,997.83
2023-01-12T08:35:15.671Z,997.78
2023-01-12T08:36:15.718Z,997.85
2023-01-12T08:37:15.655Z,997.84
2023-01-12T08:38:16.654Z,997.72
2023-01-12T08:39:15.662Z,997.79
2023-01-12T08:40:15.645Z,997.71
2023-01-12T08:41:15.618Z,997.76
2023-01-12T08:42:15.644Z,997.74
2023-01-12T08:43:15.597Z,997.78
2023-01-12T08:44:15.633Z,997.80
2023-01-12T08:45:15.607Z,997.79
2023-01-12T08:46:15.645Z,997.78
2023-01-12T08:47:15.547Z,997.78
2023-01-12T08:48:15.528Z,997.80
2023-01-12T08:49:16.802Z,997.84
2023-01-12T08:50:15.523Z,997.76
2023-01-12T08:51:15.509Z,997.85
2023-01-12T08:52:15.502Z,997.82
2023-01-12T08:53:16.476Z,997.74
2023-01-12T08:54:15.496Z,997.79
2023-01-12T08:55:15.485Z,997.71
2023-01-12T08:56:15.488Z,997.68
2023-01-12T08:57:16.447Z,997.73
2023-01-12T08:58:15.434Z,997.75
2023-01-12T08:59:15.423Z,997.68
2023-01-12T09:00:15.425Z,997.69
2023-01-12T09:01:15.601Z,997.68
2023-01-12T09:02:16.532Z,997.76
2023-01-12T09:03:23.007Z,997.67
2023-01-12T09:04:15.359Z,997.66
2023-01-12T09:05:16.376Z,997.71
2023-01-12T09:06:15.344Z,997.65
2023-01-12T09:07:15.350Z,997.67
2023-01-12T09:08:15.343Z,997.69
2023-01-12T09:09:15.315Z,997.70
2023-01-12T09:10:16.284Z,997.57
2023-01-12T09:11:15.293Z,997.76
2023-01-12T09:12:15.296Z,997.72
2023-01-12T09:13:16.264Z,997.72
2023-01-12T09:14:15.275Z,997.76
2023-01-12T09:15:15.233Z,997.63
2023-01-12T09:16:15.337Z,997.61
2023-01-12T09:17:15.211Z,997.60
2023-01-12T09:18:15.251Z,997.62
2023-01-12T09:19:15.214Z,997.44
2023-01-12T09:20:15.177Z,997.61
2023-01-12T09:21:15.166Z,997.61
2023-01-12T09:22:15.201Z,997.57
2023-01-12T09:23:15.148Z,997.53
2023-01-12T09:24:15.148Z,997.50
2023-01-12T09:25:16.177Z,997.49
2023-01-12T09:26:15.124Z,997.41
2023-01-12T09:27:15.109Z,997.41
2023-01-12T09:28:15.111Z,997.40
2023-01-12T09:29:15.140Z,997.44
2023-01-12T09:30:15.100Z,997.45
2023-01-12T09:31:18.581Z,997.30
2023-01-12T09:32:18.531Z,997.30
2023-01-12T09:33:15.045Z,997.31
2023-01-12T09:34:15.074Z,997.30
2023-01-12T09:35:15.022Z,997.28
2023-01-12T09:36:15.031Z,997.33
2023-01-12T09:37:14.990Z,997.23
2023-01-12T09:38:14.987Z,997.14
2023-01-12T09:39:26.210Z,997.16
2023-01-12T09:40:16.851Z,997.13
2023-01-12T09:41:14.963Z,997.18
2023-01-12T09:42:14.973Z,997.08
2023-01-12T09:43:14.932Z,997.16
2023-01-12T09:44:15.910Z,996.96
2023-01-12T09:45:14.919Z,996.91
2023-01-12T09:46:14.924Z,996.97
2023-01-12T09:47:14.892Z,996.98
2023-01-12T09:48:15.889Z,996.87
2023-01-12T09:49:14.891Z,996.90
2023-01-12T09:50:14.850Z,996.78
2023-01-12T09:51:14.855Z,996.73
2023-01-12T09:52:15.844Z,996.84
2023-01-12T09:53:14.827Z,996.71
2023-01-12T09:54:14.832Z,996.78
2023-01-12T09:55:14.852Z,996.78
2023-01-12T09:56:14.792Z,996.72
2023-01-12T09:57:24.429Z,996.79
2023-01-12T09:58:15.780Z,996.83
2023-01-12T09:59:18.380Z,996.87
2023-01-12T10:00:14.745Z,996.76
2023-01-12T10:01:28.168Z,996.79
2023-01-12T10:02:15.817Z,997.00
2023-01-12T10:03:14.789Z,996.97
2023-01-12T10:04:15.755Z,996.83
2023-01-12T10:05:14.702Z,997.00
2023-01-12T10:06:14.677Z,997.02
2023-01-12T10:07:14.734Z,997.04
2023-01-12T10:08:14.662Z,997.07
2023-01-12T10:09:14.635Z,997.06
2023-01-12T10:10:14.665Z,997.12
2023-01-12T10:11:14.642Z,997.06
2023-01-12T10:12:14.644Z,997.03
2023-01-12T10:13:14.612Z,997.00
2023-01-12T10:14:14.614Z,996.99
2023-01-12T10:15:14.564Z,996.99
2023-01-12T10:16:14.650Z,996.90
2023-01-12T10:17:15.566Z,996.93
2023-01-12T10:18:14.542Z,996.85
2023-01-12T10:19:14.559Z,996.88
2023-01-12T10:20:16.330Z,996.90
2023-01-12T10:21:14.511Z,996.89
2023-01-12T10:22:14.499Z,996.92
2023-01-12T10:23:14.475Z,996.74
2023-01-12T10:24:14.467Z,996.73
2023-01-12T10:25:15.488Z,996.89
2023-01-12T10:26:14.447Z,996.87
2023-01-12T10:27:14.454Z,996.83
2023-01-12T10:28:15.478Z,996.87
2023-01-12T10:29:14.411Z,996.91
2023-01-12T10:30:14.429Z,996.89
2023-01-12T10:31:14.464Z,996.97
2023-01-12T10:32:14.372Z,996.93
2023-01-12T10:33:14.376Z,996.91
2023-01-12T10:34:14.378Z,996.94
2023-01-12T10:35:14.355Z,996.88
2023-01-12T10:36:14.346Z,996.86
2023-01-12T10:37:14.338Z,996.89
2023-01-12T10:38:14.364Z,996.87
2023-01-12T10:39:15.297Z,996.86
2023-01-12T10:40:15.298Z,996.89
2023-01-12T10:41:14.299Z,996.81
2023-01-12T10:42:15.277Z,996.87
2023-01-12T10:43:19.593Z,996.88
2023-01-12T10:44:15.284Z,996.79
2023-01-12T10:45:14.265Z,996.87
2023-01-12T10:46:14.306Z,996.82
2023-01-12T10:47:14.237Z,996.80
2023-01-12T10:48:14.226Z,996.86
2023-01-12T10:49:14.207Z,996.87
2023-01-12T10:50:14.210Z,996.90
2023-01-12T10:51:14.187Z,996.95
2023-01-12T10:52:14.275Z,996.87
2023-01-12T10:53:14.166Z,996.90
2023-01-12T10:54:15.137Z,996.88
2023-01-12T10:55:14.117Z,996.94
2023-01-12T10:56:14.119Z,996.85
2023-01-12T10:57:14.113Z,996.88
2023-01-12T10:58:14.134Z,996.81
2023-01-12T10:59:14.091Z,996.83
2023-01-12T11:00:15.074Z,996.80
2023-01-12T11:01:15.205Z,996.89
2023-01-12T11:02:15.398Z,996.75
2023-01-12T11:03:14.054Z,996.78
2023-01-12T11:04:15.017Z,996.83
2023-01-12T11:05:14.019Z,996.71
2023-01-12T11:06:15.002Z,996.78
2023-01-12T11:07:13.990Z,996.76
2023-01-12T11:08:14.029Z,996.70
2023-01-12T11:09:13.998Z,996.73
2023-01-12T11:10:14.001Z,996.76
2023-01-12T11:11:14.961Z,996.74
2023-01-12T11:12:14.943Z,996.67
2023-01-12T11:13:13.928Z,996.76
2023-01-12T11:14:19.479Z,996.68
2023-01-12T11:15:14.890Z,996.65
2023-01-12T11:16:13.953Z,996.62
2023-01-12T11:17:13.875Z,996.59
2023-01-12T11:18:13.860Z,996.64
2023-01-12T11:19:13.877Z,996.60
2023-01-12T11:20:13.866Z,996.64
2023-01-12T11:21:14.854Z,996.61
2023-01-12T11:22:13.827Z,996.55
2023-01-12T11:23:14.816Z,996.56
2023-01-12T11:24:13.833Z,996.47
2023-01-12T11:25:13.817Z,996.52
2023-01-12T11:26:14.796Z,996.50
2023-01-12T11:27:13.785Z,996.50
2023-01-12T11:28:13.770Z,996.59
2023-01-12T11:29:15.738Z,996.49
2023-01-12T11:30:13.739Z,996.52
2023-01-12T11:31:13.766Z,996.53
2023-01-12T11:32:13.751Z,996.44
2023-01-12T11:33:14.716Z,996.40
2023-01-12T11:34:13.700Z,996.37
2023-01-12T11:35:13.678Z,996.42
2023-01-12T11:36:13.665Z,996.40
2023-01-12T11:37:13.710Z,996.42
2023-01-12T11:38:13.701Z,996.47
2023-01-12T11:39:13.679Z,996.43
2023-01-12T11:40:13.666Z,996.35
2023-01-12T11:41:13.629Z,996.38
2023-01-12T11:42:13.602Z,996.33
2023-01-12T11:43:13.611Z,996.33
2023-01-12T11:44:13.596Z,996.22
2023-01-12T11:45:13.638Z,996.37
2023-01-12T11:46:13.600Z,996.38
2023-01-12T11:47:13.563Z,996.49
2023-01-12T11:48:13.546Z,996.40
2023-01-12T11:49:14.530Z,996.41
2023-01-12T11:50:13.525Z,996.33
2023-01-12T11:51:13.508Z,996.40
2023-01-12T11:52:13.501Z,996.44
2023-01-12T11:53:13.499Z,996.38
2023-01-12T11:54:13.486Z,996.39
2023-01-12T11:55:13.474Z,996.34
2023-01-12T11:56:13.498Z,996.44
2023-01-12T11:57:13.469Z,996.34
2023-01-12T11:58:13.447Z,996.41
2023-01-12T11:59:13.427Z,996.41
2023-01-12T12:00:14.400Z,996.37
2023-01-12T12:01:13.451Z,996.50
2023-01-12T12:02:14.449Z,996.43
2023-01-12T12:03:13.403Z,996.44
2023-01-12T12:04:13.363Z,996.34
2023-01-12T12:05:13.376Z,996.43
2023-01-12T12:06:14.332Z,996.32
2023-01-12T12:07:13.325Z,996.30
2023-01-12T12:08:13.373Z,996.45
2023-01-12T12:09:13.341Z,996.26
2023-01-12T12:10:14.308Z,996.30
2023-01-12T12:11:13.288Z,996.29
2023-01-12T12:12:13.309Z,996.28
2023-01-12T12:13:13.291Z,996.27
2023-01-12T12:14:14.259Z,996.28
2023-01-12T12:15:14.234Z,996.24
2023-01-12T12:16:14.342Z,996.28
2023-01-12T12:17:13.218Z,996.23
2023-01-12T12:18:13.231Z,996.29
2023-01-12T12:19:13.197Z,996.28
2023-01-12T12:20:13.198Z,996.28
2023-01-12T12:21:13.177Z,996.20
2023-01-12T12:22:13.150Z,996.23
2023-01-12T12:23:13.168Z,996.21